Time;durP1;ratioP1;P1;durP2;ratioP2;P2;SDS_P1;SDS_P2;PMS_P1;PMS_P2;Temp;Humidity;BMP_temperature;BMP_pressure;BME280_temperature;BME280_humidity;BME280_pressure;Samples;Min_cycle;Max_cycle;Signal;HPM_P1;HPM_P2
2022/03/19 00:02:55;;;;;;;2.30;1.05;;;19.40;46.00;;;;;;6174398;28;20031;-67
2022/03/19 00:05:55;;;;;;;1.70;1.05;;;19.50;46.00;;;;;;6189924;28;20034;-68
2022/03/19 00:08:56;;;;;;;2.58;1.05;;;19.40;46.00;;;;;;6198512;28;20548;-67
2022/03/19 00:11:57;;;;;;;1.95;1.27;;;19.40;46.00;;;;;;6197743;28;20038;-67
2022/03/19 00:14:58;;;;;;;1.50;1.13;;;19.40;45.90;;;;;;6198285;28;20037;-67
2022/03/19 00:17:58;;;;;;;2.33;1.05;;;19.40;46.00;;;;;;6198013;28;20098;-67
2022/03/19 00:20:59;;;;;;;1.42;1.00;;;19.40;45.90;;;;;;6198042;28;20042;-67
2022/03/19 00:24:01;;;;;;;2.45;1.25;;;19.40;46.00;;;;;;6197846;28;20027;-68
2022/03/19 00:27:02;;;;;;;1.33;0.90;;;19.40;46.00;;;;;;6197772;28;20057;-67
2022/03/19 00:30:03;;;;;;;1.70;1.00;;;19.40;46.00;;;;;;6197177;28;20022;-67
2022/03/19 00:33:04;;;;;;;1.73;1.00;;;19.40;46.00;;;;;;6197722;28;20370;-67
2022/03/19 00:36:04;;;;;;;2.10;1.10;;;19.50;46.10;;;;;;6197525;28;20022;-67
2022/03/19 00:39:06;;;;;;;1.67;1.27;;;19.40;46.00;;;;;;6197659;28;20192;-67
2022/03/19 00:42:07;;;;;;;2.03;0.90;;;19.50;46.20;;;;;;6197202;28;20490;-67
2022/03/19 00:45:09;;;;;;;1.27;0.88;;;19.40;46.00;;;;;;6197726;28;20026;-67
2022/03/19 00:48:10;;;;;;;2.33;1.20;;;19.50;46.10;;;;;;6197660;28;20025;-67
2022/03/19 00:51:10;;;;;;;2.17;0.98;;;19.50;46.10;;;;;;6198695;28;20034;-67
2022/03/19 00:54:12;;;;;;;1.67;1.13;;;19.40;46.00;;;;;;6197266;28;20037;-67
2022/03/19 00:57:13;;;;;;;2.67;1.13;;;19.40;46.00;;;;;;6197003;28;20026;-67
2022/03/19 01:00:18;;;;;;;1.50;1.00;;;19.40;46.10;;;;;;6197088;28;20114;-67
2022/03/19 01:03:19;;;;;;;2.50;1.10;;;19.40;46.00;;;;;;6197257;28;20032;-67
2022/03/19 01:06:20;;;;;;;2.03;1.00;;;19.40;46.10;;;;;;6197099;28;20022;-67
2022/03/19 01:09:21;;;;;;;1.40;0.93;;;19.40;46.10;;;;;;6196133;28;20034;-67
2022/03/19 01:12:21;;;;;;;1.70;0.90;;;19.40;46.10;;;;;;6196251;28;20429;-68
2022/03/19 01:15:23;;;;;;;2.25;1.00;;;19.40;46.10;;;;;;6196607;28;20061;-67
2022/03/19 01:18:24;;;;;;;1.95;0.88;;;19.40;46.10;;;;;;6197110;28;20023;-67
2022/03/19 01:21:25;;;;;;;1.75;1.00;;;19.40;46.10;;;;;;6196972;28;20034;-67
2022/03/19 01:24:25;;;;;;;1.45;0.95;;;19.40;46.10;;;;;;6196870;28;20026;-67
2022/03/19 01:27:26;;;;;;;1.35;0.90;;;19.40;46.20;;;;;;6195924;28;20133;-67
2022/03/19 01:30:26;;;;;;;2.97;1.00;;;19.40;46.10;;;;;;6195981;28;20092;-68
2022/03/19 01:33:27;;;;;;;1.50;0.93;;;19.40;46.10;;;;;;6196477;28;20027;-67
2022/03/19 01:36:27;;;;;;;1.75;1.10;;;19.40;46.80;;;;;;6196764;28;20421;-67
2022/03/19 01:39:28;;;;;;;2.67;1.02;;;19.40;46.20;;;;;;6196414;28;20113;-67
2022/03/19 01:42:34;;;;;;;1.20;0.90;;;19.40;46.20;;;;;;6195845;28;20466;-67
2022/03/19 01:45:35;;;;;;;1.92;0.90;;;19.40;46.20;;;;;;6196076;28;20061;-67
2022/03/19 01:48:35;;;;;;;1.92;0.90;;;19.40;46.20;;;;;;6195397;28;20041;-67
2022/03/19 01:51:36;;;;;;;1.80;1.00;;;19.40;46.20;;;;;;6196005;28;20390;-67
2022/03/19 01:54:39;;;;;;;2.95;1.48;;;19.40;46.20;;;;;;6196458;28;20049;-67
2022/03/19 01:57:44;;;;;;;3.38;1.30;;;19.40;46.20;;;;;;6195801;28;20023;-67
2022/03/19 02:00:45;;;;;;;2.22;1.30;;;19.40;46.20;;;;;;6195598;28;20041;-68
2022/03/19 02:03:46;;;;;;;2.33;1.10;;;19.40;46.20;;;;;;6195295;28;20544;-68
2022/03/19 02:06:47;;;;;;;1.77;1.00;;;19.40;46.20;;;;;;6195834;28;20022;-67
2022/03/19 02:09:47;;;;;;;2.05;0.93;;;19.40;46.20;;;;;;6195109;28;20101;-67
2022/03/19 02:12:50;;;;;;;1.55;0.75;;;19.40;46.20;;;;;;6195622;28;20038;-67
2022/03/19 02:15:50;;;;;;;2.38;1.05;;;19.40;46.20;;;;;;6195520;28;20129;-67
2022/03/19 02:18:51;;;;;;;1.35;0.88;;;19.40;46.30;;;;;;6194559;28;20018;-67
2022/03/19 02:21:51;;;;;;;2.10;1.08;;;19.40;46.30;;;;;;6195021;28;20449;-67
2022/03/19 02:28:12;;;;;;;1.83;1.02;;;19.40;46.20;;;;;;6194741;28;20058;-67
2022/03/19 02:31:13;;;;;;;3.22;1.20;;;19.40;46.30;;;;;;6194463;28;20477;-67
2022/03/19 02:34:13;;;;;;;1.73;1.17;;;19.40;46.30;;;;;;6195394;28;20042;-67
2022/03/19 02:37:14;;;;;;;2.22;0.98;;;19.40;46.30;;;;;;6195063;28;20470;-67
2022/03/19 02:40:17;;;;;;;3.78;1.20;;;19.40;46.30;;;;;;6194705;28;20394;-67
2022/03/19 02:43:17;;;;;;;1.58;1.00;;;19.40;46.30;;;;;;6194538;28;20031;-68
2022/03/19 02:46:18;;;;;;;1.85;0.95;;;19.40;46.30;;;;;;6194668;28;20042;-67
2022/03/19 02:49:20;;;;;;;1.85;1.00;;;19.40;46.30;;;;;;6194415;28;20026;-67
2022/03/19 02:52:20;;;;;;;1.67;0.80;;;19.40;46.40;;;;;;6194491;28;20030;-67
2022/03/19 02:55:21;;;;;;;1.65;0.80;;;19.40;46.40;;;;;;6194324;28;20029;-67
2022/03/19 02:58:22;;;;;;;1.30;0.70;;;19.40;46.30;;;;;;6194310;28;20026;-67
2022/03/19 03:01:22;;;;;;;1.83;0.80;;;19.40;46.30;;;;;;6194126;28;20034;-67
2022/03/19 03:04:23;;;;;;;1.80;0.80;;;19.40;46.30;;;;;;6194505;28;20085;-67
2022/03/19 03:07:23;;;;;;;1.33;0.90;;;19.40;46.30;;;;;;6194427;28;20101;-67
2022/03/19 03:10:24;;;;;;;2.03;0.85;;;19.40;46.30;;;;;;6194290;28;20026;-67
2022/03/19 03:13:25;;;;;;;1.05;0.60;;;19.40;46.40;;;;;;6194355;28;20512;-67
2022/03/19 03:16:33;;;;;;;1.42;0.90;;;19.40;46.40;;;;;;6194357;28;20034;-67
2022/03/19 03:19:34;;;;;;;1.80;0.82;;;19.40;46.40;;;;;;6194038;28;20456;-67
2022/03/19 03:22:37;;;;;;;1.30;1.00;;;19.40;46.40;;;;;;6193682;28;20049;-67
2022/03/19 03:25:38;;;;;;;1.52;0.90;;;19.40;46.40;;;;;;6193973;28;20552;-67
2022/03/19 03:28:38;;;;;;;1.58;0.80;;;19.40;46.40;;;;;;6193445;28;20035;-67
2022/03/19 03:31:39;;;;;;;1.40;0.90;;;19.40;46.40;;;;;;6193785;28;20498;-67
2022/03/19 03:34:41;;;;;;;1.23;0.80;;;19.40;46.40;;;;;;6193649;28;20069;-67
2022/03/19 03:37:42;;;;;;;1.10;0.90;;;19.40;46.40;;;;;;6193926;28;20035;-67
2022/03/19 03:40:42;;;;;;;2.05;0.88;;;19.40;46.40;;;;;;6193616;28;20078;-67
2022/03/19 03:43:43;;;;;;;0.88;0.70;;;19.40;46.40;;;;;;6193928;28;20026;-67
2022/03/19 03:46:44;;;;;;;1.90;0.80;;;19.40;46.50;;;;;;6193960;28;20076;-67
2022/03/19 03:49:44;;;;;;;2.78;0.88;;;19.40;46.40;;;;;;6193534;28;20038;-67
2022/03/19 03:52:45;;;;;;;1.23;0.85;;;19.40;46.40;;;;;;6193611;28;20027;-67
2022/03/19 03:55:45;;;;;;;1.58;0.80;;;19.40;46.40;;;;;;6193572;28;20140;-67
2022/03/19 03:58:46;;;;;;;1.55;0.70;;;19.40;46.40;;;;;;6193570;28;20270;-67
2022/03/19 04:01:46;;;;;;;1.85;0.90;;;19.40;46.40;;;;;;6193695;28;20516;-67
2022/03/19 04:04:47;;;;;;;0.80;0.60;;;19.40;46.40;;;;;;6193511;28;20043;-67
2022/03/19 04:07:47;;;;;;;2.60;1.10;;;19.40;46.50;;;;;;6193715;28;20069;-67
2022/03/19 04:10:48;;;;;;;2.15;0.80;;;19.40;46.40;;;;;;6192929;28;20023;-67
2022/03/19 04:13:48;;;;;;;1.50;0.80;;;19.40;46.40;;;;;;6193742;28;20049;-67
2022/03/19 04:16:49;;;;;;;1.60;0.80;;;19.40;46.50;;;;;;6193397;28;20045;-67
2022/03/19 04:19:49;;;;;;;0.90;0.77;;;19.40;46.50;;;;;;6193280;28;20084;-67
2022/03/19 04:22:50;;;;;;;1.73;0.98;;;19.40;46.50;;;;;;6193174;28;20512;-67
2022/03/19 04:25:50;;;;;;;1.90;0.70;;;19.40;46.40;;;;;;6193530;28;20055;-67
2022/03/19 04:28:51;;;;;;;2.63;1.00;;;19.40;46.50;;;;;;6193400;28;20038;-67
2022/03/19 04:31:51;;;;;;;1.35;0.85;;;19.40;46.50;;;;;;6192266;28;20100;-67
2022/03/19 04:34:52;;;;;;;0.82;0.60;;;19.40;46.50;;;;;;6193658;28;20038;-67
2022/03/19 04:37:53;;;;;;;1.13;0.90;;;19.40;46.50;;;;;;6193209;28;20038;-67
2022/03/19 04:40:53;;;;;;;1.48;0.90;;;19.40;46.50;;;;;;6193391;28;20050;-67
2022/03/19 04:43:54;;;;;;;1.45;0.80;;;19.40;46.50;;;;;;6196167;28;20551;-67
2022/03/19 04:46:54;;;;;;;1.27;0.75;;;19.40;46.50;;;;;;6197474;28;20027;-67
2022/03/19 04:49:55;;;;;;;1.45;0.85;;;19.40;46.50;;;;;;6197166;28;20272;-67
2022/03/19 04:52:55;;;;;;;0.68;0.57;;;19.40;46.50;;;;;;6195738;28;20109;-67
2022/03/19 04:55:56;;;;;;;1.45;0.70;;;19.40;46.50;;;;;;6197332;28;20034;-67
2022/03/19 04:59:00;;;;;;;1.25;0.70;;;19.40;46.50;;;;;;6197203;28;20029;-67
2022/03/19 05:02:00;;;;;;;1.55;1.00;;;19.40;46.50;;;;;;6197302;28;20042;-67
2022/03/19 05:05:01;;;;;;;1.20;0.73;;;19.40;46.50;;;;;;6197469;28;20084;-67
2022/03/19 05:08:03;;;;;;;1.02;0.60;;;19.40;46.50;;;;;;6196918;28;20022;-67
2022/03/19 05:11:13;;;;;;;2.78;1.00;;;19.40;46.50;;;;;;6196860;28;20037;-67
2022/03/19 05:14:13;;;;;;;0.63;0.50;;;19.40;46.50;;;;;;6196857;28;20389;-68
2022/03/19 05:17:14;;;;;;;1.55;0.73;;;19.40;46.50;;;;;;6197125;28;20042;-67
2022/03/19 05:20:15;;;;;;;1.38;0.80;;;19.40;46.50;;;;;;6196709;28;20531;-67
2022/03/19 05:23:15;;;;;;;1.60;0.98;;;19.40;46.50;;;;;;6196597;28;20035;-67
2022/03/19 05:26:16;;;;;;;0.63;0.55;;;19.40;46.50;;;;;;6196063;28;20125;-67
2022/03/19 05:29:17;;;;;;;2.80;1.10;;;19.40;46.50;;;;;;6196182;28;20223;-67
2022/03/19 05:32:19;;;;;;;1.73;0.68;;;19.40;46.50;;;;;;6196105;28;20033;-67
2022/03/19 05:35:21;;;;;;;2.08;0.80;;;19.40;46.50;;;;;;6196429;28;20480;-67
2022/03/19 05:38:22;;;;;;;1.23;0.73;;;19.40;46.50;;;;;;6196424;28;20033;-67
2022/03/19 05:41:22;;;;;;;1.30;0.60;;;19.40;46.50;;;;;;6196683;28;20031;-67
2022/03/19 05:44:23;;;;;;;0.63;0.50;;;19.40;46.50;;;;;;6195929;28;20042;-67
2022/03/19 05:47:24;;;;;;;1.48;0.95;;;19.40;46.50;;;;;;6196284;28;20041;-67
2022/03/19 05:50:25;;;;;;;0.95;0.60;;;19.40;46.50;;;;;;6195947;28;20027;-67
2022/03/19 05:53:25;;;;;;;1.02;0.55;;;19.40;46.50;;;;;;6195936;28;20022;-67
2022/03/19 05:56:26;;;;;;;0.70;0.60;;;19.40;46.50;;;;;;6195904;28;20058;-67
2022/03/19 05:59:26;;;;;;;1.77;0.98;;;19.40;46.60;;;;;;6195649;28;20031;-67
2022/03/19 06:02:27;;;;;;;1.58;0.77;;;19.40;46.50;;;;;;6182064;28;20147;-67
2022/03/19 06:05:27;;;;;;;0.70;0.50;;;19.40;46.60;;;;;;6171750;28;20034;-67
2022/03/19 06:08:28;;;;;;;1.08;0.68;;;19.40;46.50;;;;;;6171130;28;20536;-67
2022/03/19 06:11:29;;;;;;;2.10;0.70;;;19.40;46.60;;;;;;6171608;28;20034;-67
2022/03/19 06:14:30;;;;;;;1.48;0.68;;;19.40;46.50;;;;;;6171485;28;20393;-67
2022/03/19 06:17:30;;;;;;;1.13;0.70;;;19.40;46.50;;;;;;6194550;28;20030;-67
2022/03/19 06:20:31;;;;;;;0.85;0.60;;;19.40;46.50;;;;;;6195492;28;20101;-67
2022/03/19 06:23:31;;;;;;;1.27;0.65;;;19.40;46.50;;;;;;6195292;28;20038;-67
2022/03/19 06:26:32;;;;;;;0.60;0.50;;;19.40;46.60;;;;;;6194327;28;20050;-67
2022/03/19 06:29:32;;;;;;;1.10;0.70;;;19.40;46.50;;;;;;6194754;28;20030;-67
2022/03/19 06:32:36;;;;;;;2.30;0.73;;;19.40;46.50;;;;;;6194882;28;20065;-67
2022/03/19 06:38:59;;;;;;;1.10;0.60;;;19.40;46.50;;;;;;6195037;28;20030;-67
2022/03/19 06:41:59;;;;;;;1.42;0.68;;;19.40;46.50;;;;;;6194802;28;20461;-67
2022/03/19 06:45:00;;;;;;;1.25;0.60;;;19.40;46.60;;;;;;6195056;28;20078;-67
2022/03/19 06:48:00;;;;;;;1.58;0.85;;;19.40;46.50;;;;;;6194688;28;20026;-67
2022/03/19 06:51:01;;;;;;;1.15;0.60;;;19.40;46.50;;;;;;6194520;28;20081;-67
2022/03/19 06:54:03;;;;;;;2.85;0.75;;;19.40;46.50;;;;;;6194532;28;20026;-67
2022/03/19 06:57:03;;;;;;;0.90;0.70;;;19.40;46.50;;;;;;6194496;28;20432;-67
2022/03/19 07:00:05;;;;;;;1.30;0.73;;;19.40;46.50;;;;;;6194141;28;20026;-67
2022/03/19 07:03:05;;;;;;;1.33;0.60;;;19.40;46.60;;;;;;6195005;28;20088;-67
2022/03/19 07:06:06;;;;;;;1.05;0.70;;;19.40;46.60;;;;;;6193632;28;20037;-67
2022/03/19 07:09:07;;;;;;;0.60;0.40;;;19.40;46.60;;;;;;6194202;28;20029;-67
2022/03/19 07:12:11;;;;;;;1.20;0.70;;;19.40;46.60;;;;;;6194450;28;20027;-67
2022/03/19 07:15:13;;;;;;;1.10;0.60;;;19.40;46.50;;;;;;6194429;28;20475;-67
2022/03/19 07:18:14;;;;;;;1.13;0.60;;;19.40;46.50;;;;;;6193902;28;20027;-69
2022/03/19 07:21:15;;;;;;;2.28;0.90;;;19.40;46.40;;;;;;6193741;28;20532;-69
2022/03/19 07:24:16;;;;;;;1.23;0.68;;;19.40;46.30;;;;;;6193598;28;20058;-67
2022/03/19 07:27:16;;;;;;;1.27;0.52;;;19.40;46.40;;;;;;6193105;28;20065;-67
2022/03/19 07:30:17;;;;;;;1.35;0.63;;;19.30;46.30;;;;;;6193228;28;20023;-67
2022/03/19 07:33:18;;;;;;;1.50;0.63;;;19.30;46.10;;;;;;6193808;28;20113;-67
2022/03/19 07:36:21;;;;;;;3.70;1.02;;;19.40;46.10;;;;;;6193980;28;20034;-67
2022/03/19 07:39:22;;;;;;;5.07;1.85;;;19.40;46.00;;;;;;6193483;28;20026;-67
2022/03/19 07:42:23;;;;;;;3.22;0.85;;;19.40;46.00;;;;;;6193943;28;20027;-67
2022/03/19 07:45:23;;;;;;;1.50;0.70;;;19.40;46.10;;;;;;6193840;28;20029;-67
2022/03/19 07:48:24;;;;;;;1.85;0.80;;;19.40;46.10;;;;;;6193797;28;20026;-67
2022/03/19 07:51:24;;;;;;;3.88;0.73;;;19.40;46.00;;;;;;6193900;28;20022;-67
2022/03/19 07:54:27;;;;;;;4.40;0.85;;;19.40;46.10;;;;;;6193966;28;20037;-67
2022/03/19 07:57:28;;;;;;;2.60;0.90;;;19.40;46.10;;;;;;6193727;28;20052;-67
2022/03/19 08:00:28;;;;;;;1.67;0.85;;;19.40;46.10;;;;;;6193538;28;20081;-67
2022/03/19 08:03:29;;;;;;;3.78;0.80;;;19.40;46.20;;;;;;6194798;28;20050;-67
2022/03/19 08:06:29;;;;;;;1.88;0.70;;;19.40;46.10;;;;;;6193812;28;20058;-67
2022/03/19 08:09:30;;;;;;;1.40;0.80;;;19.40;46.10;;;;;;6193328;28;20513;-67
2022/03/19 08:12:31;;;;;;;2.28;0.77;;;19.40;46.20;;;;;;6193130;28;20030;-67
2022/03/19 08:15:33;;;;;;;1.48;0.60;;;19.40;46.20;;;;;;6193448;28;20374;-67
2022/03/19 08:18:33;;;;;;;2.50;0.80;;;19.40;46.10;;;;;;6198325;28;20097;-69
2022/03/19 08:21:34;;;;;;;1.40;0.65;;;19.40;46.10;;;;;;6198069;28;20106;-67
2022/03/19 08:24:36;;;;;;;1.33;0.70;;;19.40;46.20;;;;;;6197948;28;20023;-67
2022/03/19 08:27:37;;;;;;;2.03;0.70;;;19.40;46.20;;;;;;6197824;28;20062;-67
2022/03/19 08:30:37;;;;;;;1.27;0.50;;;19.40;46.20;;;;;;6197953;28;20215;-67
2022/03/19 08:33:38;;;;;;;1.95;0.90;;;19.40;46.10;;;;;;6197641;28;20759;-67
2022/03/19 08:36:38;;;;;;;1.63;0.70;;;19.40;46.20;;;;;;6198276;28;20038;-67
2022/03/19 08:42:59;;;;;;;1.25;0.60;;;19.40;46.20;;;;;;6197658;28;20545;-70
2022/03/19 08:46:00;;;;;;;1.30;0.60;;;19.40;46.30;;;;;;6197528;28;20393;-69
2022/03/19 08:49:00;;;;;;;1.48;0.75;;;19.40;46.30;;;;;;6197954;28;20023;-67
2022/03/19 08:52:01;;;;;;;1.75;0.90;;;19.40;46.40;;;;;;6197486;28;20030;-67
2022/03/19 08:55:03;;;;;;;1.67;0.75;;;19.40;46.30;;;;;;6197547;28;20022;-67
2022/03/19 08:58:04;;;;;;;1.45;0.70;;;19.40;46.30;;;;;;6197142;28;20041;-69
2022/03/19 09:01:05;;;;;;;1.58;0.70;;;19.40;46.40;;;;;;6197548;28;20030;-69
2022/03/19 09:04:07;;;;;;;1.35;0.65;;;19.40;46.30;;;;;;6197080;28;20371;-66
2022/03/19 09:07:07;;;;;;;1.00;0.60;;;19.40;46.30;;;;;;6197547;28;20500;-67
2022/03/19 09:10:08;;;;;;;2.00;0.80;;;19.40;46.30;;;;;;6196811;28;20109;-67
2022/03/19 09:13:09;;;;;;;1.05;0.50;;;19.40;46.40;;;;;;6197306;28;20224;-67
2022/03/19 09:16:09;;;;;;;2.22;0.75;;;19.40;46.40;;;;;;6196905;28;20038;-67
2022/03/19 09:19:10;;;;;;;2.15;0.70;;;19.40;46.40;;;;;;6196879;28;20027;-67
2022/03/19 09:22:10;;;;;;;1.58;0.93;;;19.40;46.40;;;;;;6196670;28;20545;-67
2022/03/19 09:25:11;;;;;;;1.67;0.70;;;19.40;46.40;;;;;;6196851;28;20081;-66
2022/03/19 09:28:11;;;;;;;2.60;0.75;;;19.40;46.40;;;;;;6195770;28;20112;-67
2022/03/19 09:31:14;;;;;;;2.00;0.65;;;19.40;46.40;;;;;;6196338;28;20396;-67
2022/03/19 09:34:14;;;;;;;1.77;0.80;;;19.40;46.40;;;;;;6196480;28;20027;-67
2022/03/19 09:37:16;;;;;;;2.15;0.73;;;19.40;46.40;;;;;;6196426;28;20073;-66
2022/03/19 09:40:16;;;;;;;1.15;0.70;;;19.40;46.40;;;;;;6196346;28;20031;-67
2022/03/19 09:43:17;;;;;;;1.67;0.70;;;19.40;46.40;;;;;;6196139;28;20406;-67
2022/03/19 09:46:17;;;;;;;1.23;0.68;;;19.40;46.40;;;;;;6196228;28;20034;-67
2022/03/19 09:49:19;;;;;;;1.38;0.80;;;19.40;46.40;;;;;;6196242;28;20037;-67
2022/03/19 09:52:24;;;;;;;1.55;0.70;;;19.40;46.40;;;;;;6195774;28;20129;-67
2022/03/19 09:55:28;;;;;;;1.00;0.50;;;19.40;46.40;;;;;;6196036;28;20058;-67
2022/03/19 09:58:29;;;;;;;1.70;0.70;;;19.40;46.40;;;;;;6196200;28;20089;-67
2022/03/19 10:01:31;;;;;;;1.77;0.75;;;19.40;46.50;;;;;;6195529;28;20125;-67
2022/03/19 10:04:32;;;;;;;1.20;0.70;;;19.40;46.40;;;;;;6195901;28;20053;-67
2022/03/19 10:10:54;;;;;;;0.55;0.45;;;19.40;46.40;;;;;;6195720;28;20026;-67
2022/03/19 10:13:54;;;;;;;1.13;0.50;;;19.40;46.40;;;;;;6195680;28;20037;-67
2022/03/19 10:16:57;;;;;;;2.42;0.82;;;19.40;46.40;;;;;;6195525;28;20482;-67
2022/03/19 10:20:06;;;;;;;1.10;0.65;;;19.40;46.40;;;;;;6195364;28;20023;-67
2022/03/19 10:23:07;;;;;;;1.42;0.70;;;19.40;46.40;;;;;;6178935;28;20034;-67
2022/03/19 10:26:08;;;;;;;4.45;0.50;;;19.40;46.50;;;;;;6190539;28;20054;-67
2022/03/19 10:29:09;;;;;;;1.05;0.50;;;19.40;46.70;;;;;;6196520;28;20093;-67
2022/03/19 10:32:12;;;;;;;0.93;0.57;;;19.40;46.50;;;;;;6201725;28;20034;-67
2022/03/19 10:35:27;;;;;;;4.95;0.70;;;19.40;46.30;;;;;;6207757;28;20126;-67
2022/03/19 10:38:28;;;;;;;1.48;0.70;;;19.50;46.30;;;;;;6194201;28;20026;-67
2022/03/19 10:41:34;;;;;;;1.48;0.70;;;19.50;46.20;;;;;;6192385;28;20129;-67
2022/03/19 10:44:39;;;;;;;1.33;0.70;;;19.50;46.10;;;;;;6193032;28;20334;-67
2022/03/19 10:47:41;;;;;;;5.43;1.40;;;19.50;45.80;;;;;;6193971;28;20045;-67
2022/03/19 10:50:42;;;;;;;3.40;1.17;;;19.60;44.00;;;;;;6211069;28;20030;-67
2022/03/19 10:53:42;;;;;;;4.85;1.35;;;19.60;42.80;;;;;;6217841;28;20033;-68
2022/03/19 10:56:45;;;;;;;3.75;1.27;;;19.60;42.60;;;;;;6217543;28;20076;-68
2022/03/19 10:59:45;;;;;;;4.88;1.13;;;19.60;43.30;;;;;;6218128;28;20105;-68
2022/03/19 11:02:48;;;;;;;3.22;1.10;;;19.60;43.50;;;;;;6210506;28;20039;-68
2022/03/19 11:05:55;;;;;;;2.72;0.77;;;19.60;43.70;;;;;;6176004;28;20030;-68
2022/03/19 11:09:01;;;;;;;1.80;1.00;;;19.60;44.80;;;;;;6186854;28;20101;-68
2022/03/19 11:12:03;;;;;;;3.20;0.80;;;19.60;45.00;;;;;;6216683;28;20041;-69
2022/03/19 11:15:05;;;;;;;4.15;1.02;;;19.60;44.80;;;;;;6217255;28;20037;-68
2022/03/19 11:18:07;;;;;;;4.18;0.70;;;19.70;44.80;;;;;;6206385;28;20460;-67
2022/03/19 11:21:10;;;;;;;12.38;1.80;;;19.70;45.10;;;;;;6193796;28;20049;-68
2022/03/19 11:24:22;;;;;;;8.00;1.83;;;19.70;45.00;;;;;;6193738;28;20523;-68
2022/03/19 11:27:24;;;;;;;10.43;1.90;;;19.80;45.30;;;;;;6193633;28;20050;-68
2022/03/19 11:30:29;;;;;;;19.05;3.10;;;19.90;45.00;;;;;;6201765;28;20101;-68
2022/03/19 11:33:31;;;;;;;11.55;2.72;;;19.90;46.10;;;;;;6193871;28;20026;-68
2022/03/19 11:36:55;;;;;;;21.75;3.65;;;20.00;45.20;;;;;;6192897;28;20127;-68
2022/03/19 11:40:05;;;;;;;18.92;3.72;;;19.90;45.40;;;;;;6193286;28;20022;-68
2022/03/19 11:43:05;;;;;;;16.08;3.70;;;19.90;44.80;;;;;;6167863;28;20053;-68
2022/03/19 11:46:09;;;;;;;15.48;3.40;;;19.90;44.70;;;;;;6192187;28;20113;-68
2022/03/19 11:49:10;;;;;;;14.73;3.80;;;19.80;44.60;;;;;;6192575;28;20434;-68
2022/03/19 11:52:11;;;;;;;9.27;2.88;;;19.90;45.10;;;;;;6195754;28;20030;-68
2022/03/19 11:55:12;;;;;;;15.25;3.45;;;19.90;45.30;;;;;;6183026;28;20069;-68
2022/03/19 11:58:14;;;;;;;16.50;3.67;;;19.90;45.10;;;;;;6198425;28;20026;-68
2022/03/19 12:01:16;;;;;;;12.63;3.47;;;19.90;45.80;;;;;;6197520;28;20038;-69
2022/03/19 12:04:17;;;;;;;13.73;3.42;;;20.00;45.80;;;;;;6197097;28;20041;-69
2022/03/19 12:07:41;;;;;;;11.60;3.42;;;20.00;45.10;;;;;;6197712;28;20031;-69
2022/03/19 12:10:57;;;;;;;17.67;4.47;;;20.10;45.00;;;;;;6197591;28;20092;-69
2022/03/19 12:13:58;;;;;;;17.85;3.45;;;20.00;45.10;;;;;;6197452;28;20035;-68
2022/03/19 12:17:20;;;;;;;16.80;3.47;;;20.10;45.00;;;;;;6175147;28;20532;-68
2022/03/19 12:20:20;;;;;;;12.48;3.65;;;20.10;45.10;;;;;;6206944;28;20429;-68
2022/03/19 12:23:21;;;;;;;13.00;3.72;;;20.00;45.10;;;;;;6221719;28;20030;-68
2022/03/19 12:26:24;;;;;;;11.40;3.10;;;20.00;44.90;;;;;;6195139;28;20062;-68
2022/03/19 12:29:30;;;;;;;12.82;3.17;;;20.00;44.80;;;;;;6212239;28;20037;-68
2022/03/19 12:32:49;;;;;;;8.38;3.05;;;20.00;44.80;;;;;;6196595;28;20068;-68
2022/03/19 12:35:50;;;;;;;12.52;3.10;;;19.90;44.80;;;;;;6196073;28;20430;-68
2022/03/19 12:38:52;;;;;;;9.88;3.30;;;19.90;44.80;;;;;;6196756;28;20026;-68
2022/03/19 12:41:53;;;;;;;11.88;3.22;;;19.90;44.90;;;;;;6196649;28;20054;-68
2022/03/19 12:44:58;;;;;;;10.57;3.03;;;19.90;45.00;;;;;;6177633;28;20030;-68
2022/03/19 12:47:59;;;;;;;13.45;3.17;;;19.90;45.00;;;;;;6179976;28;20030;-68
2022/03/19 12:51:00;;;;;;;10.07;2.80;;;19.90;45.00;;;;;;6173204;28;20487;-69
2022/03/19 12:54:00;;;;;;;9.68;2.55;;;19.90;45.10;;;;;;6176368;28;21973;-68
2022/03/19 12:57:12;;;;;;;9.23;2.50;;;19.90;45.10;;;;;;6198878;28;20034;-68
2022/03/19 13:00:13;;;;;;;9.07;2.63;;;19.90;45.10;;;;;;6202365;28;20033;-68
2022/03/19 13:03:28;;;;;;;8.20;2.58;;;19.90;45.20;;;;;;6200134;28;20030;-68
2022/03/19 13:06:36;;;;;;;5.72;2.38;;;19.90;45.20;;;;;;6195716;28;20401;-68
2022/03/19 13:09:42;;;;;;;9.60;2.05;;;19.90;45.30;;;;;;6196990;28;20037;-68
2022/03/19 13:12:42;;;;;;;7.07;2.40;;;19.90;45.30;;;;;;6195817;28;20030;-68
2022/03/19 13:15:53;;;;;;;11.38;2.67;;;19.90;45.30;;;;;;6195683;28;20026;-67
2022/03/19 13:19:04;;;;;;;9.45;2.72;;;19.90;45.40;;;;;;6188107;28;20037;-68
2022/03/19 13:22:05;;;;;;;8.68;2.67;;;19.90;45.50;;;;;;6195247;28;20077;-68
2022/03/19 13:25:06;;;;;;;6.35;1.75;;;19.90;45.40;;;;;;6195166;28;20367;-68
2022/03/19 13:28:10;;;;;;;9.65;2.70;;;19.90;45.40;;;;;;6194780;28;20137;-68
2022/03/19 13:31:11;;;;;;;10.48;2.80;;;19.90;45.40;;;;;;6195135;28;20034;-68
2022/03/19 13:34:30;;;;;;;6.90;2.55;;;19.80;45.40;;;;;;6194613;28;20570;-68
2022/03/19 13:37:38;;;;;;;4.22;2.10;;;19.80;45.40;;;;;;6195246;28;20362;-68
2022/03/19 13:40:39;;;;;;;7.78;2.45;;;19.80;45.50;;;;;;6195141;28;20026;-68
2022/03/19 13:43:40;;;;;;;9.80;2.75;;;19.80;45.50;;;;;;6194768;28;20096;-68
2022/03/19 13:46:41;;;;;;;4.22;1.85;;;19.80;45.50;;;;;;6192349;28;20068;-68
2022/03/19 13:49:45;;;;;;;8.82;2.28;;;19.80;45.60;;;;;;6203826;28;20021;-68
2022/03/19 13:52:54;;;;;;;5.20;1.90;;;19.80;45.60;;;;;;6212166;28;20085;-68
2022/03/19 13:55:55;;;;;;;5.30;1.75;;;19.80;45.60;;;;;;6194448;28;20026;-68
2022/03/19 13:59:01;;;;;;;5.53;1.92;;;19.80;46.30;;;;;;6194572;28;20026;-68
2022/03/19 14:02:03;;;;;;;5.65;2.53;;;19.80;45.60;;;;;;6194938;28;20046;-68
2022/03/19 14:05:05;;;;;;;4.93;2.13;;;19.80;45.60;;;;;;6190223;28;20493;-68
2022/03/19 14:08:11;;;;;;;5.82;1.98;;;19.80;45.60;;;;;;6193087;28;20528;-68
2022/03/19 14:11:13;;;;;;;5.25;1.98;;;19.80;45.70;;;;;;6193989;28;20021;-68
2022/03/19 14:14:18;;;;;;;5.00;2.13;;;19.80;45.60;;;;;;6192508;28;20034;-68
2022/03/19 14:17:19;;;;;;;4.30;2.00;;;19.80;45.60;;;;;;6187418;28;20031;-68
2022/03/19 14:20:23;;;;;;;3.47;1.63;;;19.80;45.70;;;;;;6171681;28;20126;-68
2022/03/19 14:23:24;;;;;;;4.22;1.98;;;19.80;45.70;;;;;;6192787;28;20058;-68
2022/03/19 14:26:25;;;;;;;4.32;2.03;;;19.70;45.50;;;;;;6191152;28;20045;-68
2022/03/19 14:29:25;;;;;;;5.90;1.92;;;19.80;45.70;;;;;;6193122;28;20045;-68
2022/03/19 14:32:26;;;;;;;3.13;1.67;;;19.70;45.60;;;;;;6194100;28;20524;-68
2022/03/19 14:35:39;;;;;;;5.55;2.00;;;19.80;45.70;;;;;;6192700;28;20382;-68
2022/03/19 14:38:45;;;;;;;3.35;1.98;;;19.70;45.60;;;;;;6193340;28;20157;-68
2022/03/19 14:41:45;;;;;;;;;;;19.80;45.70;;;;;;6192468;28;20090;-68
2022/03/19 14:44:46;;;;;;;3.50;2.08;;;19.70;45.60;;;;;;6188150;28;20544;-68
2022/03/19 14:47:46;;;;;;;4.30;1.77;;;19.70;45.90;;;;;;6191466;28;20382;-68
2022/03/19 14:50:49;;;;;;;10.45;1.92;;;19.80;46.50;;;;;;6192853;28;20027;-68
2022/03/19 14:53:49;;;;;;;8.65;2.20;;;19.80;45.80;;;;;;6192065;28;20038;-67
2022/03/19 14:56:50;;;;;;;5.38;2.10;;;19.90;45.80;;;;;;6190895;28;20519;-67
2022/03/19 14:59:52;;;;;;;8.48;1.92;;;19.90;45.70;;;;;;6192239;28;20022;-67
2022/03/19 15:02:52;;;;;;;6.20;2.13;;;19.90;45.50;;;;;;6191522;28;20561;-67
2022/03/19 15:05:53;;;;;;;12.27;3.00;;;20.00;45.30;;;;;;6191297;28;20041;-68
2022/03/19 15:08:57;;;;;;;17.25;2.80;;;20.00;45.90;;;;;;6192703;28;20109;-69
2022/03/19 15:11:57;;;;;;;11.05;2.53;;;20.00;46.70;;;;;;6191938;28;20105;-69
2022/03/19 15:14:58;;;;;;;14.40;2.78;;;20.00;45.80;;;;;;6191055;28;20030;-69
2022/03/19 15:17:58;;;;;;;6.82;2.50;;;20.00;45.60;;;;;;6190444;28;20390;-68
2022/03/19 15:20:59;;;;;;;9.27;2.85;;;20.00;45.40;;;;;;6192387;28;20048;-69
2022/03/19 15:24:00;;;;;;;8.15;2.75;;;20.00;45.40;;;;;;6184792;28;20038;-69
2022/03/19 15:27:01;;;;;;;7.38;2.72;;;20.00;45.30;;;;;;6166007;28;20468;-69
2022/03/19 15:30:04;;;;;;;11.70;3.45;;;20.00;45.20;;;;;;6188363;28;20030;-69
2022/03/19 15:33:05;;;;;;;17.23;3.03;;;20.10;45.90;;;;;;6191687;28;20497;-69
2022/03/19 15:36:12;;;;;;;20.73;4.68;;;20.10;46.30;;;;;;6190410;28;20334;-69
2022/03/19 15:39:13;;;;;;;20.00;4.10;;;20.10;45.90;;;;;;6191162;28;20030;-68
2022/03/19 15:42:13;;;;;;;29.95;5.90;;;20.10;45.70;;;;;;6191244;28;20974;-69
2022/03/19 15:45:14;;;;;;;20.75;5.97;;;20.10;45.80;;;;;;6190812;28;20120;-68
2022/03/19 15:48:14;;;;;;;20.02;4.82;;;20.20;46.20;;;;;;6190734;28;20446;-68
2022/03/19 15:51:15;;;;;;;30.95;5.57;;;20.30;45.70;;;;;;6191598;28;20039;-68
2022/03/19 15:54:15;;;;;;;21.10;6.43;;;20.30;45.50;;;;;;6191043;28;20097;-69
2022/03/19 15:57:16;;;;;;;28.10;7.05;;;20.20;45.70;;;;;;6190655;28;20130;-69
2022/03/19 16:00:17;;;;;;;32.22;7.07;;;20.20;45.90;;;;;;6190826;28;20030;-69